Time;durP1;ratioP1;P1;durP2;ratioP2;P2;SDS_P1;SDS_P2;PMS_P1;PMS_P2;Temp;Humidity;BMP_temperature;BMP_pressure;BME280_temperature;BME280_humidity;BME280_pressure;Samples;Min_cycle;Max_cycle;Signal;HPM_P1;HPM_P2
2022/03/29 00:01:12;;;;;;;27.07;13.53;;;;;;;10.34;63.16;101576.84;5284423;28;20063;-76
2022/03/29 00:03:43;;;;;;;27.90;13.87;;;;;;;10.37;62.92;101569.72;5284886;28;20047;-76
2022/03/29 00:06:15;;;;;;;27.03;12.97;;;;;;;10.43;63.03;101570.34;5294658;28;20028;-76
2022/03/29 00:08:46;;;;;;;26.47;14.63;;;;;;;10.24;63.30;101561.59;5291561;28;20035;-76
2022/03/29 00:11:18;;;;;;;25.33;13.73;;;;;;;10.33;63.33;101560.31;5284080;28;20044;-75
2022/03/29 00:13:49;;;;;;;25.37;13.40;;;;;;;10.20;64.02;101553.94;5274955;28;20584;-77
2022/03/29 00:16:20;;;;;;;30.13;15.27;;;;;;;10.22;64.08;101552.97;5273356;28;20033;-76
2022/03/29 00:18:52;;;;;;;24.67;14.33;;;;;;;9.99;64.78;101559.25;5268059;28;20036;-77
2022/03/29 00:21:23;;;;;;;30.13;15.23;;;;;;;9.91;65.93;101565.69;5279644;28;20024;-76
2022/03/29 00:23:54;;;;;;;26.93;13.93;;;;;;;9.93;65.12;101558.63;5274750;28;20028;-76
2022/03/29 00:26:25;;;;;;;22.43;14.70;;;;;;;9.84;65.93;101547.72;5293247;28;20032;-76
2022/03/29 00:28:57;;;;;;;27.60;15.03;;;;;;;9.75;66.80;101554.22;5292507;28;20024;-76
2022/03/29 00:31:28;;;;;;;25.23;15.03;;;;;;;9.77;66.97;101541.94;5267556;28;20024;-76
2022/03/29 00:33:59;;;;;;;24.50;15.10;;;;;;;9.96;66.27;101533.22;5291511;28;20054;-76
2022/03/29 00:36:31;;;;;;;24.80;14.67;;;;;;;9.84;66.25;101538.13;5279429;28;20032;-76
2022/03/29 00:39:02;;;;;;;21.50;14.23;;;;;;;9.76;67.02;101533.22;5253937;28;20078;-77
2022/03/29 00:41:33;;;;;;;28.60;16.40;;;;;;;9.82;67.03;101534.72;5279567;28;20016;-76
2022/03/29 00:44:06;;;;;;;26.13;16.83;;;;;;;9.76;67.53;101525.38;5292916;28;20396;-76
2022/03/29 00:46:39;;;;;;;25.70;15.50;;;;;;;9.65;67.61;101523.25;5265381;28;20416;-76
2022/03/29 00:49:10;;;;;;;26.90;17.17;;;;;;;9.77;67.65;101518.38;5286230;28;20388;-76
2022/03/29 00:51:42;;;;;;;24.67;16.07;;;;;;;9.65;67.75;101511.94;5273600;28;20025;-76
2022/03/29 00:54:13;;;;;;;28.13;16.07;;;;;;;9.64;68.44;101515.47;5274636;28;20040;-77
2022/03/29 00:56:44;;;;;;;27.20;18.13;;;;;;;9.65;68.68;101506.72;5293301;28;20035;-76
2022/03/29 00:59:17;;;;;;;23.87;16.70;;;;;;;9.46;68.90;101501.47;5292998;28;20028;-77
2022/03/29 01:01:49;;;;;;;28.17;17.10;;;;;;;9.43;69.65;101499.81;5288318;28;20030;-76
2022/03/29 01:04:23;;;;;;;23.20;17.03;;;;;;;9.40;69.68;101497.34;5280141;28;20091;-76
2022/03/29 01:06:57;;;;;;;;;;;;;;;9.90;65.49;101500.34;5278776;28;20493;-76
2022/03/29 01:09:30;;;;;;;23.70;16.60;;;;;;;9.28;69.64;101494.38;5278514;22;20271;-76
2022/03/29 01:12:01;;;;;;;28.90;18.27;;;;;;;9.29;70.29;101501.28;5273661;28;20035;-76
2022/03/29 01:14:33;;;;;;;27.80;18.33;;;;;;;9.18;70.62;101487.84;5272346;28;20382;-76
2022/03/29 01:19:58;;;;;;;23.97;19.03;;;;;;;8.95;71.68;101469.63;5272296;28;20032;-76
2022/03/29 01:22:30;;;;;;;;;;;;;;;9.66;66.77;101490.97;5273132;28;20497;-76
2022/03/29 01:25:01;;;;;;;26.67;18.17;;;;;;;9.22;70.56;101470.25;5289617;28;19916;-76
2022/03/29 01:27:33;;;;;;;22.93;18.23;;;;;;;9.11;71.12;101482.03;5293065;28;20028;-76
2022/03/29 01:30:06;;;;;;;32.03;18.80;;;;;;;9.19;71.00;101479.94;5291320;28;20085;-76
2022/03/29 01:32:40;;;;;;;27.67;18.50;;;;;;;8.97;72.68;101484.41;5277267;28;20028;-76
2022/03/29 01:35:12;;;;;;;28.45;19.33;;;;;;;8.88;72.93;101475.19;5272284;28;20036;-76
2022/03/29 01:37:43;;;;;;;27.43;19.37;;;;;;;9.07;72.05;101475.25;5271465;28;20415;-76
2022/03/29 01:40:17;;;;;;;30.50;20.73;;;;;;;9.00;72.72;101477.28;5289997;28;20036;-75
2022/03/29 01:42:51;;;;;;;26.15;18.63;;;;;;;8.94;72.92;101475.78;5282221;28;20028;-76
2022/03/29 01:45:25;;;;;;;28.20;18.42;;;;;;;8.99;72.61;101465.13;5271601;28;20775;-76
2022/03/29 01:47:57;;;;;;;30.75;19.40;;;;;;;8.92;73.20;101456.69;5281764;28;20383;-76
2022/03/29 01:50:28;;;;;;;29.80;20.40;;;;;;;8.67;74.04;101462.97;5270119;28;20035;-77
2022/03/29 01:52:59;;;;;;;30.83;22.23;;;;;;;8.64;74.17;101460.47;5273033;28;20060;-77
2022/03/29 01:55:31;;;;;;;25.47;19.03;;;;;;;8.79;73.68;101466.84;5274479;28;20116;-77
2022/03/29 01:58:02;;;;;;;30.40;20.43;;;;;;;8.67;73.95;101460.38;5287857;28;20028;-77
2022/03/29 02:00:34;;;;;;;27.83;20.60;;;;;;;8.90;73.68;101460.31;5289858;28;20028;-77
2022/03/29 02:03:07;;;;;;;31.73;20.77;;;;;;;8.74;74.26;101449.66;5270405;28;20082;-77
2022/03/29 02:05:39;;;;;;;30.45;20.42;;;;;;;8.75;74.45;101441.75;5272107;28;20031;-77
2022/03/29 02:08:11;;;;;;;28.40;19.17;;;;;;;8.69;74.20;101437.63;5289376;28;20478;-77
2022/03/29 02:10:42;;;;;;;28.80;20.33;;;;;;;8.66;74.63;101450.81;5289696;28;20050;-77
2022/03/29 02:13:14;;;;;;;30.70;21.87;;;;;;;8.66;74.52;101440.38;5279567;28;20028;-77
2022/03/29 02:15:45;;;;;;;32.23;21.00;;;;;;;8.78;74.00;101439.00;5270315;28;20111;-77
2022/03/29 02:18:16;;;;;;;32.83;22.63;;;;;;;8.63;74.89;101422.22;5283650;28;20560;-77
2022/03/29 02:20:47;;;;;;;33.10;23.40;;;;;;;8.57;75.93;101436.38;5291863;28;20028;-77
2022/03/29 02:23:19;;;;;;;31.90;22.37;;;;;;;8.44;76.07;101430.81;5291062;28;20089;-77
2022/03/29 02:25:50;;;;;;;29.00;22.77;;;;;;;8.79;74.82;101434.63;5272783;28;20033;-77
2022/03/29 02:28:22;;;;;;;32.13;22.63;;;;;;;8.61;75.96;101431.03;5271212;28;20012;-77
2022/03/29 02:30:53;;;;;;;29.70;22.90;;;;;;;8.76;75.14;101419.09;5277331;28;20032;-77
2022/03/29 02:33:25;;;;;;;28.97;23.07;;;;;;;8.64;75.81;101416.09;5292267;28;20028;-77
2022/03/29 02:35:56;;;;;;;34.73;25.00;;;;;;;8.43;76.56;101412.59;5278311;28;20071;-78
2022/03/29 02:38:27;;;;;;;32.40;24.27;;;;;;;8.50;76.39;101419.25;5282250;28;20039;-76
2022/03/29 02:41:00;;;;;;;28.57;23.03;;;;;;;8.44;76.70;101409.06;5271526;28;20032;-78
2022/03/29 02:43:31;;;;;;;32.73;24.37;;;;;;;8.28;77.86;101409.69;5281169;28;20453;-77
2022/03/29 02:46:03;;;;;;;37.13;23.83;;;;;;;8.44;77.27;101407.31;5272615;28;20576;-77
2022/03/29 02:48:35;;;;;;;35.27;25.40;;;;;;;8.33;77.86;101407.75;5277378;28;20431;-76
2022/03/29 02:51:06;;;;;;;32.27;23.70;;;;;;;8.43;77.70;101392.53;5288839;28;20115;-76
2022/03/29 02:53:37;;;;;;;33.90;25.07;;;;;;;8.29;77.78;101374.84;5277693;28;20035;-76
2022/03/29 02:56:09;;;;;;;32.60;24.03;;;;;;;8.42;77.45;101385.66;5292368;28;20099;-76
2022/03/29 02:58:40;;;;;;;39.57;24.80;;;;;;;8.30;78.02;101391.38;5285904;28;20502;-76
2022/03/29 03:01:11;;;;;;;30.73;24.80;;;;;;;8.32;78.42;101385.19;5274818;28;20080;-76
2022/03/29 03:03:42;;;;;;;35.50;25.40;;;;;;;8.40;78.15;101378.78;5292539;28;20072;-77
2022/03/29 03:06:14;;;;;;;34.10;26.13;;;;;;;8.29;78.56;101379.25;5291318;28;20032;-76
2022/03/29 03:08:45;;;;;;;36.03;25.93;;;;;;;8.29;78.40;101374.03;5289907;28;20055;-76
2022/03/29 03:11:16;;;;;;;35.53;25.47;;;;;;;8.31;78.35;101372.19;5284441;28;20031;-76
2022/03/29 03:13:48;;;;;;;33.90;27.10;;;;;;;8.11;79.42;101376.47;5280887;28;20040;-76
2022/03/29 03:16:19;;;;;;;38.37;26.73;;;;;;;8.29;78.70;101374.03;5275000;28;20027;-76
2022/03/29 03:18:51;;;;;;;36.80;27.53;;;;;;;8.24;78.95;101366.38;5273407;28;20032;-76
2022/03/29 03:21:22;;;;;;;38.57;28.43;;;;;;;8.26;78.77;101368.91;5283374;28;20035;-77
2022/03/29 03:23:53;;;;;;;35.20;28.63;;;;;;;8.19;79.62;101370.94;5291357;28;21028;-74
2022/03/29 03:26:25;;;;;;;40.10;29.60;;;;;;;8.25;79.56;101368.09;5274412;28;20035;-76
2022/03/29 03:28:56;;;;;;;38.37;29.50;;;;;;;8.21;79.45;101367.34;5278359;28;20069;-76
2022/03/29 03:31:27;;;;;;;38.17;29.70;;;;;;;8.21;79.31;101356.91;5282927;28;20036;-76
2022/03/29 03:33:58;;;;;;;36.10;28.37;;;;;;;8.10;79.78;101353.88;5291529;28;20454;-76
2022/03/29 03:36:30;;;;;;;38.97;29.83;;;;;;;7.97;80.25;101364.84;5274312;28;20467;-76
2022/03/29 03:39:02;;;;;;;43.83;30.73;;;;;;;8.17;79.71;101362.34;5276269;28;20713;-76
2022/03/29 03:41:33;;;;;;;41.70;30.00;;;;;;;8.01;80.31;101354.28;5283576;28;20028;-76
2022/03/29 03:44:05;;;;;;;39.23;30.27;;;;;;;8.07;80.00;101348.81;5273952;28;20085;-76
2022/03/29 03:46:36;;;;;;;41.20;30.80;;;;;;;7.95;80.55;101350.16;5273371;28;20032;-76
2022/03/29 03:49:07;;;;;;;41.03;32.33;;;;;;;8.08;79.89;101346.13;5274564;28;20120;-77
2022/03/29 03:51:38;;;;;;;39.80;32.20;;;;;;;8.02;80.36;101353.38;5275222;28;20032;-77
2022/03/29 03:54:10;;;;;;;39.63;31.93;;;;;;;7.92;80.23;101353.75;5280390;28;20028;-77
2022/03/29 03:56:41;;;;;;;41.23;34.23;;;;;;;7.90;80.72;101355.56;5273768;28;20116;-77
2022/03/29 03:59:12;;;;;;;38.10;31.70;;;;;;;8.00;80.29;101348.22;5277619;28;20025;-77
2022/03/29 04:01:44;;;;;;;46.40;34.57;;;;;;;8.02;80.03;101361.19;5283028;28;20036;-77
2022/03/29 04:04:15;;;;;;;42.77;31.97;;;;;;;7.81;81.25;101348.09;5277082;28;20085;-77
2022/03/29 04:06:46;;;;;;;42.93;33.27;;;;;;;7.77;81.31;101331.72;5294423;28;20030;-77
2022/03/29 04:09:17;;;;;;;43.07;32.27;;;;;;;7.61;81.77;101327.13;5293499;28;20066;-77
2022/03/29 04:11:49;;;;;;;45.50;34.10;;;;;;;7.74;81.74;101327.50;5292068;28;20478;-77
2022/03/29 04:14:20;;;;;;;43.30;33.13;;;;;;;7.74;81.46;101330.13;5273311;28;20025;-77
2022/03/29 04:16:51;;;;;;;49.77;34.53;;;;;;;7.84;81.01;101327.97;5265445;28;20128;-77
2022/03/29 04:19:22;;;;;;;48.50;34.37;;;;;;;7.79;81.12;101308.19;5251207;28;20098;-77
2022/03/29 04:21:54;;;;;;;47.50;34.67;;;;;;;7.77;81.62;101320.47;5270219;28;20035;-77
2022/03/29 04:24:25;;;;;;;47.17;35.57;;;;;;;7.66;82.24;101308.72;5285163;28;20132;-76
2022/03/29 04:26:56;;;;;;;46.43;34.57;;;;;;;7.70;81.90;101314.63;5272089;28;20036;-76
2022/03/29 04:29:28;;;;;;;44.67;33.30;;;;;;;7.65;81.31;101299.19;5272248;28;20082;-76
2022/03/29 04:31:59;;;;;;;45.40;34.93;;;;;;;7.74;81.44;101305.78;5272878;28;20492;-76
2022/03/29 04:34:30;;;;;;;52.73;37.37;;;;;;;7.61;82.53;101305.44;5280284;28;20395;-75
2022/03/29 04:37:02;;;;;;;47.13;38.07;;;;;;;7.61;81.99;101302.84;5278217;28;20020;-76
2022/03/29 04:39:33;;;;;;;44.53;36.37;;;;;;;7.55;82.40;101290.03;5273427;28;20032;-76
2022/03/29 04:42:06;;;;;;;49.43;38.57;;;;;;;7.50;82.92;101293.66;5277864;28;20083;-77
2022/03/29 04:44:37;;;;;;;43.47;35.30;;;;;;;7.51;82.38;101294.53;5286637;28;20160;-77
2022/03/29 04:47:09;;;;;;;47.23;38.10;;;;;;;7.56;81.91;101294.31;5271745;28;20032;-76
2022/03/29 04:49:40;;;;;;;50.20;37.63;;;;;;;7.43;82.78;101286.16;5276924;28;20161;-76
2022/03/29 04:52:12;;;;;;;48.80;38.77;;;;;;;7.34;83.78;101297.78;5293881;28;20060;-75
2022/03/29 04:54:43;;;;;;;49.27;38.40;;;;;;;7.30;83.60;101281.44;5274668;28;20048;-76
2022/03/29 04:57:14;;;;;;;50.23;40.47;;;;;;;7.39;83.50;101290.63;5270690;28;20074;-76
2022/03/29 04:59:46;;;;;;;50.87;40.03;;;;;;;7.31;83.97;101287.50;5283314;28;20749;-76
2022/03/29 05:02:17;;;;;;;49.00;38.97;;;;;;;7.35;83.19;101292.50;5272846;28;20029;-75
2022/03/29 05:04:49;;;;;;;47.97;39.23;;;;;;;7.25;84.07;101294.63;5272001;28;20024;-76
2022/03/29 05:07:22;;;;;;;51.13;40.73;;;;;;;7.31;84.01;101292.72;5269586;28;20037;-77
2022/03/29 05:09:55;;;;;;;49.07;39.13;;;;;;;7.24;84.73;101287.72;5273895;28;20053;-76
2022/03/29 05:12:26;;;;;;;54.97;43.13;;;;;;;7.22;84.51;101273.06;5283925;28;20024;-76
2022/03/29 05:14:58;;;;;;;49.20;39.40;;;;;;;7.16;84.82;101266.31;5254002;28;20510;-78
2022/03/29 05:17:31;;;;;;;54.37;41.33;;;;;;;7.11;85.04;101281.28;5275832;28;20036;-80
2022/03/29 05:20:03;;;;;;;50.40;40.37;;;;;;;7.09;85.15;101281.34;5271855;28;20036;-79
2022/03/29 05:22:45;;;;;;;53.90;41.53;;;;;;;7.13;85.54;101279.47;5268970;28;20487;-78
2022/03/29 05:25:19;;;;;;;52.47;42.47;;;;;;;7.10;85.58;101287.41;5272048;28;20086;-78
2022/03/29 05:27:52;;;;;;;49.63;42.47;;;;;;;7.13;85.14;101275.13;5271768;28;20028;-78
2022/03/29 05:30:23;;;;;;;51.47;41.30;;;;;;;7.21;85.01;101290.44;5270041;28;20275;-77
2022/03/29 05:33:00;;;;;;;55.87;42.03;;;;;;;7.07;85.81;101287.53;5254344;28;20521;-79
2022/03/29 05:35:32;;;;;;;52.73;40.20;;;;;;;7.09;85.09;101275.28;5261888;28;20032;-79
2022/03/29 05:38:04;;;;;;;53.83;40.30;;;;;;;7.17;85.12;101281.06;5263733;28;20471;-79
2022/03/29 05:40:35;;;;;;;52.90;42.37;;;;;;;7.24;84.90;101285.09;5266510;28;20116;-78
2022/03/29 05:43:11;;;;;;;56.87;43.90;;;;;;;7.28;84.88;101277.19;5281966;28;20031;-78
2022/03/29 05:45:42;;;;;;;54.10;43.03;;;;;;;7.16;85.16;101268.94;5264895;28;20032;-78
2022/03/29 05:51:03;;;;;;;62.80;44.13;;;;;;;7.20;84.88;101265.31;5279674;28;20406;-78
2022/03/29 05:53:35;;;;;;;65.80;46.80;;;;;;;7.18;85.38;101272.34;5281415;28;20020;-76
2022/03/29 05:56:06;;;;;;;65.07;46.23;;;;;;;7.11;85.90;101284.75;5269963;28;20029;-76
2022/03/29 05:58:37;;;;;;;65.10;48.33;;;;;;;7.07;86.77;101274.50;5270580;28;20471;-77
2022/03/29 06:01:09;;;;;;;65.23;49.07;;;;;;;7.07;87.16;101274.50;5269993;28;20027;-77
2022/03/29 06:03:40;;;;;;;63.53;49.00;;;;;;;7.13;86.04;101274.25;5270815;28;20016;-76
2022/03/29 06:06:13;;;;;;;65.80;48.53;;;;;;;6.97;86.90;101269.63;5286914;28;20090;-77
2022/03/29 06:08:44;;;;;;;66.73;50.50;;;;;;;7.15;86.48;101272.47;5275239;28;20028;-76
2022/03/29 06:11:16;;;;;;;69.80;51.77;;;;;;;7.16;87.27;101273.31;5267702;28;20472;-77
2022/03/29 06:13:47;;;;;;;69.93;50.67;;;;;;;7.02;88.04;101277.28;5266336;28;20033;-76
2022/03/29 06:16:20;;;;;;;71.33;51.57;;;;;;;7.01;88.46;101284.25;5269199;28;20054;-77
2022/03/29 06:18:51;;;;;;;70.20;50.93;;;;;;;7.16;87.26;101274.13;5272789;28;20040;-77
2022/03/29 06:21:24;;;;;;;69.90;50.20;;;;;;;7.22;87.68;101284.34;5266472;28;20033;-78
2022/03/29 06:23:55;;;;;;;71.63;51.47;;;;;;;7.18;87.67;101285.34;5258567;28;20108;-78
2022/03/29 06:26:27;;;;;;;75.37;53.53;;;;;;;7.16;87.53;101273.31;5273461;28;20471;-79
2022/03/29 06:28:58;;;;;;;76.57;50.77;;;;;;;7.16;87.63;101286.34;5270147;28;20043;-76
2022/03/29 06:31:29;;;;;;;71.70;51.83;;;;;;;6.92;89.33;101282.00;5257639;28;20109;-77
2022/03/29 06:34:01;;;;;;;77.30;52.90;;;;;;;6.88;89.65;101269.97;5259981;28;20043;-76
2022/03/29 06:36:32;;;;;;;73.57;53.03;;;;;;;6.84;90.37;101268.41;5258593;28;20043;-76
2022/03/29 06:39:03;;;;;;;73.30;51.63;;;;;;;6.86;90.17;101266.59;5265612;28;20027;-77
2022/03/29 06:41:35;;;;;;;77.93;54.97;;;;;;;6.98;89.72;101280.91;5262403;28;20052;-77
2022/03/29 06:44:09;;;;;;;77.07;53.23;;;;;;;6.90;90.69;101278.59;5272149;28;20037;-77
2022/03/29 06:46:41;;;;;;;81.30;52.95;;;;;;;6.88;90.90;101272.59;5281142;28;20116;-77
2022/03/29 06:49:13;;;;;;;79.20;54.27;;;;;;;7.02;89.65;101272.06;5276068;28;20086;-76
2022/03/29 06:51:45;;;;;;;80.00;55.43;;;;;;;6.93;91.15;101275.88;5270872;28;20025;-77
2022/03/29 06:54:17;;;;;;;79.90;53.47;;;;;;;7.04;90.27;101272.00;5261655;28;20033;-76
2022/03/29 06:56:48;;;;;;;73.60;52.83;;;;;;;7.16;89.77;101278.53;5265786;28;20031;-76
2022/03/29 06:59:19;;;;;;;77.97;53.87;;;;;;;7.02;89.88;101275.53;5263653;28;20035;-76
2022/03/29 07:01:50;;;;;;;88.17;55.00;;;;;;;6.80;90.74;101259.88;5268998;28;20036;-75
2022/03/29 07:04:21;;;;;;;83.17;56.87;;;;;;;6.78;91.72;101264.28;5275265;28;20038;-80
2022/03/29 07:06:53;;;;;;;81.70;54.23;;;;;;;7.00;90.88;101266.91;5267649;28;20041;-78
2022/03/29 07:12:14;;;;;;;84.77;56.20;;;;;;;6.96;91.34;101256.69;5275564;28;20041;-77
2022/03/29 07:14:45;;;;;;;85.17;57.03;;;;;;;6.95;91.06;101254.97;5274661;28;20025;-77
2022/03/29 07:17:17;;;;;;;87.67;55.60;;;;;;;7.09;90.53;101255.31;5274322;28;20642;-77
2022/03/29 07:19:48;;;;;;;82.17;56.60;;;;;;;7.14;90.03;101260.31;5274184;28;20090;-77
2022/03/29 07:22:23;;;;;;;81.73;53.03;;;;;;;7.13;90.31;101261.25;5272056;28;20033;-77
2022/03/29 07:24:55;;;;;;;85.07;53.83;;;;;;;7.26;90.07;101267.66;5269330;28;20028;-77
2022/03/29 07:27:26;;;;;;;92.00;58.33;;;;;;;7.31;90.15;101269.25;5253170;28;20025;-78
2022/03/29 07:29:59;;;;;;;83.97;56.43;;;;;;;7.42;88.56;101274.88;5256122;28;20024;-78
2022/03/29 07:32:31;;;;;;;79.97;54.07;;;;;;;7.25;89.80;101276.41;5262085;28;20035;-77
2022/03/29 07:35:03;;;;;;;94.90;58.90;;;;;;;7.21;89.91;101261.78;5274120;28;20031;-78
2022/03/29 07:37:34;;;;;;;83.90;56.37;;;;;;;7.21;90.81;101272.22;5272188;28;20024;-78
2022/03/29 07:40:08;;;;;;;90.13;55.43;;;;;;;7.31;90.72;101283.16;5273766;28;20036;-77
2022/03/29 07:42:39;;;;;;;84.75;55.05;;;;;;;7.21;90.84;101280.03;5274827;28;20070;-79
2022/03/29 07:45:12;;;;;;;85.47;55.87;;;;;;;7.26;90.77;101275.47;5274034;28;20028;-78
2022/03/29 07:47:44;;;;;;;91.30;57.83;;;;;;;7.34;90.46;101283.00;5272867;28;20032;-76
2022/03/29 07:50:15;;;;;;;85.10;54.43;;;;;;;7.12;90.13;101259.56;5273602;28;20020;-78
2022/03/29 07:52:47;;;;;;;81.57;55.53;;;;;;;7.18;90.77;101300.13;5253279;28;20033;-77
2022/03/29 07:55:18;;;;;;;86.10;56.43;;;;;;;7.42;90.75;101300.94;5258933;28;20039;-77
2022/03/29 07:57:49;;;;;;;86.93;55.80;;;;;;;7.38;90.24;101310.63;5257189;28;20474;-77
2022/03/29 08:00:33;;;;;;;81.80;52.67;;;;;;;7.41;89.64;101299.25;5251112;28;20052;-77
2022/03/29 08:03:07;;;;;;;80.93;54.40;;;;;;;7.61;88.85;101301.06;5262037;28;20025;-80
2022/03/29 08:05:41;;;;;;;86.85;55.47;;;;;;;7.49;89.46;101291.97;5265651;28;20017;-82
2022/03/29 08:08:16;;;;;;;86.77;55.17;;;;;;;7.52;89.38;101297.97;5262617;28;20647;-80
2022/03/29 08:10:48;;;;;;;87.80;55.73;;;;;;;7.49;89.32;101302.41;5271685;28;20055;-82
2022/03/29 08:13:20;;;;;;;94.40;56.13;;;;;;;7.46;89.18;101292.09;5271608;28;20033;-81
2022/03/29 08:15:53;;;;;;;87.47;54.50;;;;;;;7.41;89.94;101295.78;5265938;28;20506;-80
2022/03/29 08:18:25;;;;;;;89.27;56.90;;;;;;;7.38;89.21;101268.09;5262293;28;20020;-80
2022/03/29 08:20:57;;;;;;;91.40;54.33;;;;;;;7.38;89.53;101283.75;5263500;28;20079;-79
2022/03/29 08:23:30;;;;;;;85.53;51.83;;;;;;;7.41;90.12;101273.19;5261458;28;20034;-79
2022/03/29 08:26:01;;;;;;;86.90;52.13;;;;;;;7.68;88.81;101280.81;5262077;28;20060;-79
2022/03/29 08:28:32;;;;;;;91.73;54.73;;;;;;;7.56;89.02;101282.16;5260144;28;20049;-79
2022/03/29 08:31:04;;;;;;;95.07;56.77;;;;;;;7.54;89.47;101278.75;5265960;28;20052;-80
2022/03/29 08:33:36;;;;;;;94.20;56.13;;;;;;;7.64;89.27;101281.84;5262721;28;20055;-80
2022/03/29 08:36:07;;;;;;;85.37;53.97;;;;;;;7.59;89.54;101283.81;5258729;28;20116;-77
2022/03/29 08:38:38;;;;;;;88.37;54.27;;;;;;;7.66;88.60;101263.53;5264378;28;20105;-80
2022/03/29 08:41:09;;;;;;;95.17;54.77;;;;;;;7.50;89.91;101270.19;5260753;28;20108;-82
2022/03/29 08:43:42;;;;;;;85.57;53.37;;;;;;;7.53;90.18;101271.84;5260324;28;20074;-81
2022/03/29 08:46:13;;;;;;;87.43;53.77;;;;;;;7.42;90.74;101274.06;5260556;28;20045;-81
2022/03/29 08:48:49;;;;;;;86.57;54.17;;;;;;;7.41;90.81;101273.19;5261023;28;20584;-82
2022/03/29 08:51:22;;;;;;;87.27;56.07;;;;;;;7.43;91.06;101287.03;5256708;28;20390;-82
2022/03/29 08:53:53;;;;;;;90.37;53.83;;;;;;;7.52;90.79;101279.75;5253278;28;20025;-81
2022/03/29 08:56:25;;;;;;;95.33;57.73;;;;;;;7.58;90.38;101274.25;5260620;28;20032;-81
2022/03/29 08:58:57;;;;;;;92.40;57.80;;;;;;;7.65;90.09;101283.53;5261965;28;20020;-83
2022/03/29 09:01:28;;;;;;;99.57;57.83;;;;;;;7.75;90.18;101277.03;5260472;28;20025;-83
2022/03/29 09:04:13;;;;;;;97.20;57.17;;;;;;;7.79;89.63;101274.31;5256550;28;20032;-84
2022/03/29 09:06:51;;;;;;;98.80;57.57;;;;;;;7.94;88.79;101280.66;5256905;28;20048;-80
2022/03/29 09:09:35;;;;;;;92.00;56.83;;;;;;;7.94;89.21;101281.50;5261424;28;20056;-79
2022/03/29 09:12:18;;;;;;;94.00;57.58;;;;;;;8.10;87.66;101275.63;5257475;28;20075;-79
2022/03/29 09:15:00;;;;;;;98.43;60.57;;;;;;;8.08;88.07;101272.25;5260125;28;20487;-79
2022/03/29 09:17:40;;;;;;;90.70;57.70;;;;;;;8.00;88.18;101269.97;5261532;28;20017;-79
2022/03/29 09:20:23;;;;;;;95.40;57.67;;;;;;;8.02;88.79;101267.28;5257116;28;20021;-79
2022/03/29 09:22:55;;;;;;;95.00;58.87;;;;;;;8.08;88.09;101270.47;5257541;28;20467;-78
2022/03/29 09:25:38;;;;;;;97.57;59.10;;;;;;;8.05;87.92;101256.72;5259809;28;20102;-79
2022/03/29 09:28:12;;;;;;;90.97;56.43;;;;;;;7.92;88.94;101262.47;5260125;28;20023;-79
2022/03/29 09:30:51;;;;;;;97.33;60.30;;;;;;;8.14;87.94;101271.13;5261657;28;20032;-79
2022/03/29 09:33:33;;;;;;;103.37;62.97;;;;;;;8.07;88.36;101270.53;5264975;28;20013;-80
2022/03/29 09:36:07;;;;;;;103.20;62.83;;;;;;;8.05;87.99;101272.38;5260890;28;20762;-81
2022/03/29 09:38:47;;;;;;;97.68;60.85;;;;;;;8.20;88.16;101270.88;5259344;28;20383;-81
2022/03/29 09:41:28;;;;;;;101.23;59.07;;;;;;;8.20;88.13;101263.06;5269664;28;20127;-77
2022/03/29 09:44:06;;;;;;;107.83;62.97;;;;;;;8.04;88.60;101260.25;5271694;28;20499;-78
2022/03/29 09:47:15;;;;;;;114.53;64.00;;;;;;;8.26;87.32;101249.72;5271991;28;20031;-78
2022/03/29 09:50:01;;;;;;;131.70;68.80;;;;;;;8.13;87.75;101244.22;5206757;28;20030;-78
2022/03/29 09:52:36;;;;;;;121.97;67.90;;;;;;;8.16;87.83;101249.28;5266550;28;20049;-78
2022/03/29 09:55:17;;;;;;;137.97;72.20;;;;;;;8.25;87.46;101247.19;5272244;28;20107;-78
2022/03/29 09:57:52;;;;;;;136.27;74.00;;;;;;;8.32;87.13;101246.00;5263504;28;20051;-79
2022/03/29 10:00:29;;;;;;;135.73;74.73;;;;;;;8.39;87.13;101239.63;5262715;28;20013;-79
2022/03/29 10:03:02;;;;;;;126.70;69.77;;;;;;;8.38;86.35;101237.06;5258986;28;20040;-77
2022/03/29 10:05:37;;;;;;;125.87;69.50;;;;;;;8.34;87.03;101236.34;5250193;28;20029;-78
2022/03/29 10:11:02;;;;;;;125.60;67.90;;;;;;;8.33;87.21;101226.81;5250321;28;20053;-80
2022/03/29 10:13:35;;;;;;;116.07;67.30;;;;;;;8.35;86.02;101225.00;5250855;28;20036;-78
2022/03/29 10:16:10;;;;;;;100.37;58.33;;;;;;;8.32;87.25;101225.13;5250731;28;20108;-78
2022/03/29 10:18:46;;;;;;;98.17;61.77;;;;;;;8.38;86.98;101221.41;5253794;28;20033;-78
2022/03/29 10:21:17;;;;;;;91.43;57.70;;;;;;;8.31;86.90;101216.44;5260649;28;20029;-77
2022/03/29 10:23:49;;;;;;;82.27;53.53;;;;;;;8.48;86.19;101220.91;5270450;28;20081;-78
2022/03/29 10:26:22;;;;;;;86.37;55.57;;;;;;;8.50;86.44;101220.00;5269110;28;20407;-77
2022/03/29 10:28:55;;;;;;;75.90;54.30;;;;;;;8.31;86.32;101203.41;5263660;28;20036;-77
2022/03/29 10:31:29;;;;;;;74.53;52.90;;;;;;;8.28;87.08;101215.72;5272929;28;20029;-77
2022/03/29 10:34:11;;;;;;;79.28;53.35;;;;;;;8.43;86.93;101220.28;5265147;28;20036;-76
2022/03/29 10:37:03;;;;;;;71.47;49.37;;;;;;;8.59;86.48;101219.59;5258784;28;20025;-77
2022/03/29 10:39:46;;;;;;;71.70;49.37;;;;;;;8.68;85.49;101223.56;5256594;28;20025;-79
2022/03/29 10:42:38;;;;;;;74.73;49.10;;;;;;;8.69;85.90;101214.84;5254317;28;20048;-79
2022/03/29 10:45:25;;;;;;;69.33;48.07;;;;;;;8.54;86.68;101211.09;5253123;28;20025;-82
2022/03/29 10:47:59;;;;;;;65.53;47.07;;;;;;;8.83;85.76;101208.97;5254963;28;20025;-79
2022/03/29 10:50:54;;;;;;;68.85;49.67;;;;;;;8.97;85.44;101199.63;5254601;28;20169;-79
2022/03/29 10:53:28;;;;;;;62.00;46.57;;;;;;;9.01;84.51;101198.56;5254199;28;20021;-79
2022/03/29 10:56:20;;;;;;;64.57;45.45;;;;;;;9.07;84.40;101190.44;5254924;28;20025;-79
2022/03/29 10:59:04;;;;;;;59.13;46.33;;;;;;;9.22;84.14;101194.06;5254786;28;20041;-80
2022/03/29 11:01:37;;;;;;;63.15;45.03;;;;;;;9.27;84.19;101192.06;5254826;28;20037;-81
2022/03/29 11:04:17;;;;;;;61.97;45.70;;;;;;;9.23;83.56;101171.41;5253719;28;20023;-80
2022/03/29 11:07:09;;;;;;;58.90;45.03;;;;;;;9.51;82.95;101183.94;5267721;28;20062;-86
2022/03/29 11:09:44;;;;;;;56.87;42.93;;;;;;;9.43;82.22;101179.09;5274983;28;20048;-76
2022/03/29 11:12:35;;;;;;;56.97;42.20;;;;;;;9.65;82.13;101180.63;5272903;28;20387;-74
2022/03/29 11:15:25;;;;;;;57.80;42.40;;;;;;;9.70;81.51;101169.09;5269491;28;20025;-76
2022/03/29 11:17:56;;;;;;;54.27;40.83;;;;;;;9.73;81.60;101166.31;5290408;28;20028;-74
2022/03/29 11:20:36;;;;;;;55.73;40.13;;;;;;;9.70;81.86;101167.34;5291613;28;20391;-76
2022/03/29 11:23:09;;;;;;;57.57;42.07;;;;;;;10.00;80.53;101165.84;5271865;28;20033;-75
2022/03/29 11:25:43;;;;;;;54.83;42.50;;;;;;;9.90;79.55;101152.38;5274310;28;20066;-77
2022/03/29 11:28:16;;;;;;;51.13;40.90;;;;;;;10.03;79.19;101170.91;5272596;28;20035;-76
2022/03/29 11:30:53;;;;;;;52.20;40.60;;;;;;;10.19;79.26;101164.84;5270822;28;20082;-83
2022/03/29 11:33:33;;;;;;;57.67;42.87;;;;;;;10.50;78.81;101156.22;5253485;28;20517;-84
2022/03/29 11:36:05;;;;;;;59.47;43.90;;;;;;;10.79;77.25;101152.91;5260711;28;20065;-74
2022/03/29 11:38:36;;;;;;;57.53;43.93;;;;;;;10.94;76.32;101161.72;5262942;28;20041;-77
2022/03/29 11:41:20;;;;;;;62.37;43.73;;;;;;;11.17;76.17;101145.59;5261677;28;20094;-80
2022/03/29 11:43:58;;;;;;;58.67;45.60;;;;;;;11.21;75.11;101153.19;5262583;28;20383;-77
2022/03/29 11:47:02;;;;;;;58.87;45.00;;;;;;;11.54;75.05;101142.59;5261976;28;20021;-76
2022/03/29 11:49:39;;;;;;;60.70;42.10;;;;;;;11.65;73.65;101136.72;5233619;28;20052;-76
2022/03/29 11:52:17;;;;;;;54.87;42.23;;;;;;;11.64;72.94;101130.63;5263124;28;20139;-79
2022/03/29 11:54:51;;;;;;;54.40;43.30;;;;;;;11.69;72.79;101119.84;5264361;28;20620;-79
2022/03/29 11:57:30;;;;;;;50.65;41.83;;;;;;;11.82;71.82;101115.53;5263654;28;20787;-79